createdAt,value
2018-06-11T00:03:16.374Z,15.5
2018-06-11T00:08:46.105Z,15.5
2018-06-11T00:14:14.943Z,15.4
2018-06-11T00:19:43.696Z,15.5
2018-06-11T00:25:13.494Z,15.5
2018-06-11T00:30:43.399Z,15.5
2018-06-11T00:36:13.205Z,15.6
2018-06-11T00:41:42.945Z,15.7
2018-06-11T00:47:11.796Z,15.7
2018-06-11T00:52:40.622Z,15.7
2018-06-11T00:58:09.452Z,15.7
2018-06-11T01:03:38.217Z,15.7
2018-06-11T01:09:08.077Z,15.7
2018-06-11T01:14:36.851Z,15.7
2018-06-11T01:20:06.685Z,15.6
2018-06-11T01:25:36.489Z,15.5
2018-06-11T01:31:06.285Z,15.5
2018-06-11T01:36:35.079Z,15.5
2018-06-11T01:42:03.869Z,15.5
2018-06-11T01:47:33.684Z,15.5
2018-06-11T01:53:03.455Z,15.5
2018-06-11T01:58:32.386Z,15.6
2018-06-11T02:04:01.070Z,15.6
2018-06-11T02:09:30.888Z,15.6
2018-06-11T02:14:59.875Z,15.6
2018-06-11T02:20:29.523Z,15.6
2018-06-11T02:25:59.253Z,15.5
2018-06-11T02:31:28.262Z,15.4
2018-06-11T02:36:57.831Z,15.4
2018-06-11T02:42:26.743Z,15.3
2018-06-11T02:47:55.354Z,15.2
2018-06-11T02:47:55.827Z,15.2
2018-06-11T02:53:25.139Z,15.1
2018-06-11T02:58:54.027Z,15.1
2018-06-11T03:04:23.642Z,15
2018-06-11T03:09:52.364Z,15
2018-06-11T03:15:21.120Z,15.1
2018-06-11T03:20:49.993Z,15.1
2018-06-11T03:26:19.614Z,15.1
2018-06-11T03:31:48.341Z,15.1
2018-06-11T03:37:18.099Z,15
2018-06-11T03:42:47.810Z,15
2018-06-11T03:48:17.612Z,15
2018-06-11T03:53:46.530Z,15.1
2018-06-11T03:59:16.079Z,15.1
2018-06-11T04:04:45.821Z,15.1
2018-06-11T04:10:14.591Z,15.2
2018-06-11T04:15:44.344Z,15.2
2018-06-11T04:21:13.119Z,15.2
2018-06-11T04:26:41.922Z,15.3
2018-06-11T04:32:11.803Z,15.4
2018-06-11T04:37:41.477Z,15.5
2018-06-11T04:43:10.290Z,15.6
2018-06-11T04:48:39.067Z,15.6
2018-06-11T04:54:07.897Z,15.7
2018-06-11T04:59:36.687Z,15.7
2018-06-11T05:05:06.492Z,15.7
2018-06-11T05:10:36.310Z,15.7
2018-06-11T05:16:06.105Z,15.8
2018-06-11T05:21:35.247Z,15.8
2018-06-11T05:27:04.750Z,15.8
2018-06-11T05:32:33.618Z,15.7
2018-06-11T05:38:03.401Z,15.7
2018-06-11T05:43:33.204Z,15.7
2018-06-11T05:49:02.157Z,15.8
2018-06-11T05:54:30.943Z,15.8
2018-06-11T05:59:59.724Z,15.8
2018-06-11T06:05:29.505Z,15.7
2018-06-11T06:10:59.325Z,15.7
2018-06-11T06:16:28.110Z,15.8
2018-06-11T06:21:57.952Z,15.9
2018-06-11T06:27:26.931Z,16.1
2018-06-11T06:32:56.813Z,16.3
2018-06-11T06:38:25.643Z,16.4
2018-06-11T06:43:55.514Z,16.4
2018-06-11T06:49:24.483Z,16.4
2018-06-11T06:54:53.292Z,16.5
2018-06-11T07:00:22.182Z,16.5
2018-06-11T07:05:52.130Z,16.6
2018-06-11T07:11:22.063Z,16.6
2018-06-11T07:16:50.953Z,16.4
2018-06-11T07:22:19.784Z,16.4
2018-06-11T07:27:48.759Z,16.5
2018-06-11T07:33:18.586Z,16.6
2018-06-11T07:38:47.560Z,16.8
2018-06-11T07:44:17.463Z,16.8
2018-06-11T07:49:46.341Z,16.7
2018-06-11T07:55:15.263Z,16.6
2018-06-11T08:00:45.133Z,16.6
2018-06-11T08:06:15.206Z,16.7
2018-06-11T08:11:43.988Z,16.7
2018-06-11T08:17:13.863Z,16.7
2018-06-11T08:22:43.819Z,16.7
2018-06-11T08:28:13.754Z,16.7
2018-06-11T08:33:42.900Z,16.6
2018-06-11T08:39:12.475Z,16.6
2018-06-11T08:44:42.342Z,16.5
2018-06-11T08:50:12.330Z,16.6
2018-06-11T08:55:42.208Z,16.9
2018-06-11T09:01:11.168Z,17.2
2018-06-11T09:06:40.165Z,17.4
2018-06-11T09:12:10.134Z,17.4
2018-06-11T09:17:39.105Z,17.4
2018-06-11T09:23:09.265Z,17.3
2018-06-11T09:28:38.121Z,17.1
2018-06-11T09:34:08.019Z,17.2
2018-06-11T09:39:38.016Z,17.4
2018-06-11T09:45:07.063Z,17.5
2018-06-11T09:50:37.018Z,17.6
2018-06-11T09:56:07.074Z,17.6
2018-06-11T10:01:36.130Z,17.6
2018-06-11T10:07:06.029Z,17.7
2018-06-11T10:12:35.107Z,17.9
2018-06-11T10:18:04.185Z,18.1
2018-06-11T10:23:33.224Z,18.2
2018-06-11T10:29:02.323Z,18.3
2018-06-11T10:34:31.395Z,18.2
2018-06-11T10:40:00.447Z,18.3
2018-06-11T10:45:29.670Z,18.4
2018-06-11T10:50:59.757Z,18.4
2018-06-11T10:56:29.757Z,18.4
2018-06-11T11:02:00.028Z,18.4
2018-06-11T11:07:29.110Z,18.5
2018-06-11T11:12:59.081Z,18.5
2018-06-11T11:18:28.243Z,18.6
2018-06-11T11:23:57.382Z,18.6
2018-06-11T11:29:27.422Z,18.6
2018-06-11T11:34:57.555Z,18.6
2018-06-11T11:40:27.667Z,18.5
2018-06-11T11:45:56.777Z,18.3
2018-06-11T11:51:25.845Z,18.3
2018-06-11T11:56:55.989Z,18.4
2018-06-11T12:02:26.009Z,18.4
2018-06-11T12:07:56.355Z,18.4
2018-06-11T12:13:25.236Z,18.4
2018-06-11T12:18:54.358Z,18.4
2018-06-11T12:24:23.823Z,18.3
2018-06-11T12:29:52.490Z,18.3
2018-06-11T12:35:21.589Z,18.4
2018-06-11T12:40:51.700Z,18.5
2018-06-11T12:46:20.926Z,18.6
2018-06-11T12:51:50.021Z,18.6
2018-06-11T12:57:19.507Z,18.7
2018-06-11T13:02:49.225Z,18.8
2018-06-11T13:08:18.363Z,18.8
2018-06-11T13:13:48.518Z,18.9
2018-06-11T13:19:17.743Z,19.1
2018-06-11T13:24:46.926Z,19.2
2018-06-11T13:30:17.063Z,19.1
2018-06-11T13:35:47.307Z,19.1
2018-06-11T13:41:17.373Z,19
2018-06-11T13:46:47.576Z,18.9
2018-06-11T13:52:17.934Z,18.9
2018-06-11T13:57:46.878Z,18.9
2018-06-11T14:03:17.027Z,18.8
2018-06-11T14:08:46.128Z,18.7
2018-06-11T14:14:16.345Z,18.5
2018-06-11T14:19:45.351Z,18.3
2018-06-11T14:25:14.381Z,18.1
2018-06-11T14:30:44.469Z,17.9
2018-06-11T14:36:14.687Z,17.9
2018-06-11T14:41:43.685Z,18
2018-06-11T14:47:12.604Z,18.2
2018-06-11T14:52:42.716Z,18.1
2018-06-11T14:58:12.798Z,18.1
2018-06-11T15:03:42.867Z,18.2
2018-06-11T15:09:12.033Z,18.4
2018-06-11T15:14:41.205Z,18.3
2018-06-11T15:20:10.217Z,18.1
2018-06-11T15:25:40.437Z,18.1
2018-06-11T15:31:09.306Z,18
2018-06-11T15:36:38.311Z,17.9
2018-06-11T15:42:08.379Z,17.9
2018-06-11T15:47:37.408Z,17.9
2018-06-11T15:53:06.446Z,17.7
2018-06-11T15:58:36.474Z,17.6
2018-06-11T16:04:05.497Z,17.6
2018-06-11T16:09:35.548Z,17.6
2018-06-11T16:15:05.576Z,17.6
2018-06-11T16:20:35.589Z,17.5
2018-06-11T16:26:05.559Z,17.4
2018-06-11T16:31:35.696Z,17.2
2018-06-11T16:31:36.757Z,17.2
2018-06-11T16:37:05.683Z,17
2018-06-11T16:42:35.414Z,17
2018-06-11T16:48:05.411Z,17
2018-06-11T16:53:35.350Z,16.9
2018-06-11T16:59:05.300Z,16.8
2018-06-11T17:04:35.166Z,16.7
2018-06-11T17:10:05.102Z,16.5
2018-06-11T17:15:35.088Z,16.5
2018-06-11T17:21:03.819Z,16.4
2018-06-11T17:26:32.777Z,16.4
2018-06-11T17:32:01.638Z,16.4
2018-06-11T17:37:31.569Z,16.3
2018-06-11T17:43:00.387Z,16.2
2018-06-11T17:48:29.251Z,16.1
2018-06-11T17:53:58.103Z,16.2
2018-06-11T17:59:27.985Z,16.2
2018-06-11T18:04:56.942Z,16
2018-06-11T18:10:26.697Z,15.9
2018-06-11T18:15:55.533Z,15.8
2018-06-11T18:21:24.373Z,15.7
2018-06-11T18:26:54.314Z,15.6
2018-06-11T18:32:22.951Z,15.6
2018-06-11T18:37:51.729Z,15.4
2018-06-11T18:43:21.497Z,15.2
2018-06-11T18:48:51.218Z,15.2
2018-06-11T18:54:21.067Z,15.1
2018-06-11T18:59:50.777Z,15.1
2018-06-11T19:05:20.801Z,15
2018-06-11T19:10:49.257Z,15
2018-06-11T19:16:18.015Z,15
2018-06-11T19:21:46.740Z,15
2018-06-11T19:27:15.882Z,14.9
2018-06-11T19:32:44.278Z,14.8
2018-06-11T19:38:12.955Z,14.8
2018-06-11T19:43:41.672Z,14.7
2018-06-11T19:49:10.563Z,14.7
2018-06-11T19:54:39.166Z,14.7
2018-06-11T20:00:08.933Z,14.7
2018-06-11T20:05:37.554Z,14.6
2018-06-11T20:11:07.310Z,14.5
2018-06-11T20:16:35.964Z,14.4
2018-06-11T20:22:05.787Z,14.4
2018-06-11T20:27:34.489Z,14.4
2018-06-11T20:33:04.008Z,14.4
2018-06-11T20:38:32.732Z,14.4
2018-06-11T20:44:02.409Z,14.4
2018-06-11T20:49:31.105Z,14.4
2018-06-11T20:55:00.244Z,14.4
2018-06-11T21:00:29.683Z,14.4
2018-06-11T21:05:58.076Z,14.4
2018-06-11T21:11:27.745Z,14.4
2018-06-11T21:16:56.530Z,14.5
2018-06-11T21:22:25.119Z,14.5
2018-06-11T21:27:54.780Z,14.4
2018-06-11T21:33:23.534Z,14.5
2018-06-11T21:38:52.229Z,14.4
2018-06-11T21:44:20.884Z,14.4
2018-06-11T21:49:49.521Z,14.3
2018-06-11T21:55:18.215Z,14.2
2018-06-11T22:00:46.871Z,14.2
2018-06-11T22:06:16.487Z,14.1
2018-06-11T22:11:45.132Z,14.1
2018-06-11T22:17:14.779Z,14.1
2018-06-11T22:22:43.455Z,14
2018-06-11T22:28:12.061Z,14
2018-06-11T22:33:40.818Z,14
2018-06-11T22:39:09.562Z,14
2018-06-11T22:44:39.251Z,14.1
2018-06-11T22:50:08.681Z,14.1
2018-06-11T22:55:37.341Z,14.1
2018-06-11T23:01:06.975Z,14.1
2018-06-11T23:06:35.662Z,14.1
2018-06-11T23:12:04.304Z,14.1
2018-06-11T23:17:33.903Z,14.1
2018-06-11T23:23:02.551Z,14.1
2018-06-11T23:28:31.227Z,14.1
2018-06-11T23:34:00.831Z,14.1
2018-06-11T23:39:29.498Z,14.1
2018-06-11T23:44:59.169Z,14.1
2018-06-11T23:50:28.750Z,14.1
2018-06-11T23:55:57.408Z,14.1
